This is the latest recevied weather packets stored in our database for station/object OE5RBO. If no packets are shown the sender has not sent any weather packets the latest 10 day(s).
| Time | Temp. | Humidity | Pressure | Rain* | Wind** | Luminosity | Snow |
|---|---|---|---|---|---|---|---|
| 1777979323 | 24.44° C | 46% | 1006.3 hPa | 0 mm | - | - | - |
| 1777978959 | 25.56° C | 40% | 1006.4 hPa | 0 mm | - | - | - |
| 1777978723 | 25.56° C | 40% | 1006.4 hPa | 0 mm | - | - | - |
| 1777978172 | 26.67° C | 35% | 1006.6 hPa | 0 mm | - | - | - |
| 1777977522 | 26.11° C | 40% | 1006.7 hPa | 0 mm | - | - | - |
| 1777976922 | 26.67° C | 42% | 1006.9 hPa | 0 mm | - | - | - |
| 1777975721 | 23.33° C | 48% | 1007.3 hPa | 0 mm | - | - | - |
| 1777975120 | 23.33° C | 49% | 1007.2 hPa | 0 mm | - | - | - |
| 1777974520 | 23.89° C | 48% | 1007.3 hPa | 0 mm | - | - | - |
| 1777973319 | 24.44° C | 48% | 1007.5 hPa | 0 mm | - | - | - |
| 1777972119 | 23.89° C | 50% | 1007.6 hPa | 0 mm | - | - | - |
| 1777971518 | 23.89° C | 53% | 1007.7 hPa | 0 mm | - | - | - |
| 1777970918 | 23.33° C | 52% | 1007.7 hPa | 0 mm | - | - | - |
| 1777970318 | 24.44° C | 53% | 1007.7 hPa | 0 mm | - | - | - |
| 1777969717 | 23.89° C | 56% | 1007.8 hPa | 0 mm | - | - | - |
| 1777969118 | 23.33° C | 58% | 1007.8 hPa | 0 mm | - | - | - |
| 1777968517 | 23.89° C | 56% | 1007.9 hPa | 0 mm | - | - | - |
| 1777967916 | 23.33° C | 57% | 1008 hPa | 0 mm | - | - | - |
| 1777967316 | 23.33° C | 58% | 1008 hPa | 0 mm | - | - | - |
| 1777966715 | 23.89° C | 55% | 1008.1 hPa | 0 mm | - | - | - |
| 1777966115 | 25° C | 54% | 1008.2 hPa | 0 mm | - | - | - |
| 1777965515 | 25.56° C | 53% | 1008.2 hPa | 0 mm | - | - | - |
| 1777964914 | 24.44° C | 54% | 1008.2 hPa | 0 mm | - | - | - |
| 1777964314 | 23.33° C | 55% | 1008.2 hPa | 0 mm | - | - | - |
| 1777963714 | 22.78° C | 58% | 1008.2 hPa | 0 mm | - | - | - |
* Rain since midnight (hover to see other rain measurements)
** Current wind speed in m/s (hover to see current wind gust speed)